Time;durP1;ratioP1;P1;durP2;ratioP2;P2;SDS_P1;SDS_P2;PMS_P1;PMS_P2;Temp;Humidity;BMP_temperature;BMP_pressure;BME280_temperature;BME280_humidity;BME280_pressure;Samples;Min_cycle;Max_cycle;Signal;HPM_P1;HPM_P2
2021/04/29 11:06:32;;;;;;;45.17;42.97;;;;;;;;;;5090913;27;20572;-70
2021/04/29 11:09:01;;;;;;;51.50;48.63;;;;;;;;;;5090870;28;20213;-70
2021/04/29 11:11:33;;;;;;;44.90;42.72;;;;;;;;;;5090798;28;20156;-70
2021/04/29 11:14:04;;;;;;;49.70;47.28;;;;;;;;;;5089702;28;20254;-69
2021/04/29 11:16:42;;;;;;;48.85;46.25;;;;;;;;;;5090781;28;20170;-70
2021/04/29 11:19:08;;;;;;;47.85;45.55;;;;;;;;;;5090666;28;20174;-70
2021/04/29 11:21:34;;;;;;;47.55;45.25;;;;;;;;;;5090598;28;20167;-69
2021/04/29 11:24:00;;;;;;;46.80;44.65;;;;;;;;;;5090590;28;20183;-69
2021/04/29 11:26:33;;;;;;;46.38;44.28;;;;;;;;;;5090590;28;20246;-69
2021/04/29 11:28:59;;;;;;;46.60;44.40;;;;;;;;;;5090498;28;20156;-68
2021/04/29 11:31:25;;;;;;;47.22;45.03;;;;;;;;;;5090447;28;20274;-68
2021/04/29 11:33:52;;;;;;;54.90;52.30;;;;;;;;;;5090363;28;20250;-69
2021/04/29 11:36:19;;;;;;;42.20;40.20;;;;;;;;;;5090357;28;20169;-68
2021/04/29 11:38:56;;;;;;;40.45;38.65;;;;;;;;;;5090283;28;20168;-68
2021/04/29 11:41:22;;;;;;;47.95;45.85;;;;;;;;;;5090170;28;20624;-69
2021/04/29 11:43:57;;;;;;;40.65;38.95;;;;;;;;;;5090150;28;20163;-71
2021/04/29 11:46:23;;;;;;;39.60;38.00;;;;;;;;;;5090002;28;20206;-70
2021/04/29 11:48:59;;;;;;;39.50;37.90;;;;;;;;;;5090052;28;20520;-70
2021/04/29 11:51:27;;;;;;;39.30;37.80;;;;;;;;;;5089958;28;20164;-71
2021/04/29 11:53:53;;;;;;;41.95;40.22;;;;;;;;;;5088676;28;20549;-70
2021/04/29 11:56:19;;;;;;;40.67;39.05;;;;;;;;;;5089962;28;20175;-70
2021/04/29 11:58:45;;;;;;;37.85;36.35;;;;;;;;;;5089867;28;20172;-70
2021/04/29 12:01:15;;;;;;;39.72;38.05;;;;;;;;;;5089679;28;20164;-71
2021/04/29 12:03:43;;;;;;;37.05;35.65;;;;;;;;;;5089756;28;20221;-70
2021/04/29 12:06:09;;;;;;;37.83;36.38;;;;;;;;;;5089536;28;20307;-70
2021/04/29 12:08:36;;;;;;;40.83;39.17;;;;;;;;;;5088396;28;20686;-70
2021/04/29 12:11:06;;;;;;;42.15;39.53;;;;;;;;;;5089230;28;20600;-71
2021/04/29 12:13:32;;;;;;;37.85;36.15;;;;;;;;;;5088179;28;20576;-70
2021/04/29 12:16:00;;;;;;;38.95;37.15;;;;;;;;;;5086542;28;20195;-75
2021/04/29 12:18:26;;;;;;;41.10;39.30;;;;;;;;;;5075984;28;20211;-73
2021/04/29 12:20:52;;;;;;;39.47;37.67;;;;;;;;;;5074367;28;20183;-73
2021/04/29 12:23:18;;;;;;;40.95;39.20;;;;;;;;;;5075963;28;20188;-74
2021/04/29 12:25:55;;;;;;;42.00;40.17;;;;;;;;;;5075759;28;20241;-74
2021/04/29 12:28:21;;;;;;;42.00;40.25;;;;;;;;;;5075829;28;20169;-73
2021/04/29 12:30:47;;;;;;;43.22;41.42;;;;;;;;;;5075667;28;20247;-73
2021/04/29 12:33:18;;;;;;;43.65;41.42;;;;;;;;;;5075675;28;20168;-72
2021/04/29 12:35:44;;;;;;;42.95;41.13;;;;;;;;;;5075763;28;20175;-74
2021/04/29 12:38:11;;;;;;;42.50;40.25;;;;;;;;;;5075108;28;20226;-71
2021/04/29 12:40:38;;;;;;;44.50;42.60;;;;;;;;;;5074797;28;20573;-72
2021/04/29 12:43:07;;;;;;;39.05;37.50;;;;;;;;;;5075643;28;20529;-71
2021/04/29 12:45:43;;;;;;;44.92;43.03;;;;;;;;;;5075481;28;20223;-72
2021/04/29 12:48:09;;;;;;;43.42;41.60;;;;;;;;;;5075571;28;20168;-72
2021/04/29 12:50:35;;;;;;;38.50;36.78;;;;;;;;;;5075475;28;20171;-74
2021/04/29 12:53:01;;;;;;;43.10;41.40;;;;;;;;;;5075367;28;20168;-73
2021/04/29 12:55:27;;;;;;;41.83;40.03;;;;;;;;;;5075315;28;20199;-72
2021/04/29 12:57:53;;;;;;;42.75;41.03;;;;;;;;;;5075267;28;20172;-73
2021/04/29 13:00:19;;;;;;;40.28;38.58;;;;;;;;;;5075311;28;20187;-72
2021/04/29 13:02:45;;;;;;;39.70;38.10;;;;;;;;;;5075206;28;20229;-72
2021/04/29 13:05:16;;;;;;;39.13;37.53;;;;;;;;;;5073613;28;20228;-71
2021/04/29 13:07:44;;;;;;;41.15;39.25;;;;;;;;;;5073758;28;20177;-72
2021/04/29 13:10:22;;;;;;;42.60;40.83;;;;;;;;;;5074732;28;20251;-72
2021/04/29 13:12:55;;;;;;;43.90;42.13;;;;;;;;;;5075062;28;20172;-71
2021/04/29 13:15:32;;;;;;;73.95;70.60;;;;;;;;;;5074909;28;20226;-70
2021/04/29 13:17:58;;;;;;;46.92;44.78;;;;;;;;;;5073534;28;20177;-72
2021/04/29 13:20:24;;;;;;;39.90;38.30;;;;;;;;;;5074809;28;20173;-73
2021/04/29 13:22:50;;;;;;;41.03;39.33;;;;;;;;;;5073592;28;20184;-73
2021/04/29 13:25:17;;;;;;;42.80;41.10;;;;;;;;;;5074705;28;20687;-73
2021/04/29 13:27:44;;;;;;;40.83;39.20;;;;;;;;;;5074005;28;20184;-73
2021/04/29 13:30:10;;;;;;;39.00;37.50;;;;;;;;;;5074415;28;20175;-72
2021/04/29 13:32:36;;;;;;;39.55;38.05;;;;;;;;;;5074610;28;20172;-72
2021/04/29 13:35:03;;;;;;;41.50;39.90;;;;;;;;;;5073301;28;20179;-72
2021/04/29 13:37:29;;;;;;;41.08;39.38;;;;;;;;;;5074470;28;20176;-72
2021/04/29 13:39:55;;;;;;;38.08;36.58;;;;;;;;;;5074399;28;20175;-73
2021/04/29 13:42:23;;;;;;;37.60;35.83;;;;;;;;;;5074435;28;20533;-72
2021/04/29 13:44:49;;;;;;;35.95;34.55;;;;;;;;;;5074240;28;20657;-72
2021/04/29 13:47:15;;;;;;;36.53;35.13;;;;;;;;;;5074241;28;20176;-74
2021/04/29 13:49:41;;;;;;;40.55;38.92;;;;;;;;;;5074272;28;20273;-73
2021/04/29 13:52:07;;;;;;;36.72;35.15;;;;;;;;;;5074056;28;20188;-73
2021/04/29 13:54:33;;;;;;;33.50;32.20;;;;;;;;;;5074037;28;20279;-73
2021/04/29 14:38:20;;;;;;;35.85;34.08;;;;;;;;;;5090881;28;20503;-75
2021/04/29 14:40:46;;;;;;;33.55;32.30;;;;;;;;;;5091011;28;20629;-75
2021/04/29 14:43:12;;;;;;;42.72;40.42;;;;;;;;;;5091068;28;20174;-75
2021/04/29 14:45:38;;;;;;;39.08;37.38;;;;;;;;;;5091008;28;20159;-75
